Theologos P . — SZNB — position and weather

sailwx.info

Track history (hours):
 
Tides and Currents Weather Stations Pressure Air Temp Water Temp Dewpoint Dewpoint Depression Visibility Wind Speed Wind Dir Waves Ship Positions

Theologos P .

Last reported at 2017-Feb-24 21:34 UTC. Time now 2017-Feb-24 21:36 UTC.
Position N 37°28' E 025°19'.

Length 118 m; draft 4.4 m.

Type: Passenger vessel. MMSI: 240521000.

Date/timePositionNaut miles runAvg speedWind from/ knotsBaromVisibWave heightAir tempDewpointWater temp
2017-Feb-24 21:34N 37°28' E 025°19'5 5.2
2017-Feb-24 20:33N 37°30' E 025°13'9 8.8
2017-Feb-24 19:33N 37°35' E 025°03'4213.8
2017-Feb-24 16:32N 37°57' E 024°19'15 2.4
2017-Feb-24 10:28N 38°01' E 024°01'1718.4
2017-Feb-24 09:33N 37°56' E 024°21'4414.7
2017-Feb-24 06:33N 37°32' E 025°08'1010.2
2017-Feb-24 05:33N 37°28' E 025°20'0 0.0
2017-Feb-24 04:33N 37°28' E 025°20'0 0.0
2017-Feb-24 03:33N 37°28' E 025°20'0 0.0
2017-Feb-24 02:33N 37°28' E 025°20'0 0.0
2017-Feb-24 01:33N 37°28' E 025°20'0 0.0
2017-Feb-24 00:33N 37°28' E 025°20'0 0.0
2017-Feb-23 23:33N 37°28' E 025°20'0 0.0
2017-Feb-23 22:33N 37°28' E 025°20'0 0.0
2017-Feb-23 21:33N 37°28' E 025°20'3 3.2
2017-Feb-23 20:34N 37°29' E 025°16'1110.9
2017-Feb-23 19:33N 37°34' E 025°04'4214.1
2017-Feb-23 16:33N 37°57' E 024°19'15 2.3
2017-Feb-23 10:15N 38°01' E 024°01'1217.6
2017-Feb-23 09:33N 37°57' E 024°15'3615.0
2017-Feb-23 07:09N 37°40' E 024°56'1219.8
2017-Feb-23 06:33N 37°33' E 025°07'1111.2
2017-Feb-23 05:33N 37°28' E 025°20'0 0.0
2017-Feb-23 04:33N 37°28' E 025°20'0 0.0
2017-Feb-23 03:33N 37°28' E 025°20'0 0.0
2017-Feb-23 02:33N 37°28' E 025°20'0 0.0
2017-Feb-23 01:33N 37°28' E 025°20'0 0.0
2017-Feb-23 00:33N 37°28' E 025°20'0 0.0
2017-Feb-22 23:33N 37°28' E 025°20'0 0.0
2017-Feb-22 22:33N 37°28' E 025°20'0 0.0
2017-Feb-22 21:33N 37°28' E 025°20'0 0.0
2017-Feb-22 20:33N 37°28' E 025°20'9 9.3
2017-Feb-22 19:33N 37°32' E 025°09'4714.8
2017-Feb-22 16:22N 37°57' E 024°18'15 2.4
2017-Feb-22 10:22N 38°01' E 024°01'1518.3
2017-Feb-22 09:31N 37°56' E 024°19'3514.1
2017-Feb-22 07:04N 37°39' E 024°57'1019.6
2017-Feb-22 06:34N 37°33' E 025°07'1111.2
2017-Feb-22 05:33N 37°28' E 025°20'0 0.0
2017-Feb-22 04:33N 37°28' E 025°20'0 0.0
2017-Feb-22 03:33N 37°28' E 025°20'0 0.0
2017-Feb-22 02:33N 37°28' E 025°20'0 0.0
2017-Feb-22 01:33N 37°28' E 025°20'0 0.0
2017-Feb-22 00:33N 37°28' E 025°20'0 0.0
2017-Feb-21 23:33N 37°28' E 025°20'0 0.0
2017-Feb-21 22:33N 37°28' E 025°20'0 0.0
2017-Feb-21 21:33N 37°28' E 025°20'0 0.0
2017-Feb-21 20:33N 37°28' E 025°20'9 9.3
2017-Feb-21 19:34N 37°32' E 025°09'62 6.6
2017-Feb-21 10:17N 38°01' E 024°01'1317.4
2017-Feb-21 09:33N 37°57' E 024°16'4715.7
2017-Feb-21 06:33N 37°33' E 025°07'1111.2
2017-Feb-21 05:33N 37°28' E 025°20'0 0.0
2017-Feb-21 04:34N 37°28' E 025°20'0 0.0
2017-Feb-21 03:34N 37°28' E 025°20'0 0.0
2017-Feb-21 02:33N 37°28' E 025°20'0 0.0
2017-Feb-21 01:34N 37°28' E 025°20'0 0.0
2017-Feb-21 00:34N 37°28' E 025°20'0 0.0
2017-Feb-20 23:33N 37°28' E 025°20'0 0.0
2017-Feb-20 22:33N 37°28' E 025°20'0 0.0
2017-Feb-20 21:33N 37°28' E 025°20'0 0.0
2017-Feb-20 20:34N 37°28' E 025°20'9 9.2
2017-Feb-20 19:33N 37°32' E 025°09'4714.9
2017-Feb-20 16:23N 37°57' E 024°18'14 2.4
2017-Feb-20 10:23N 38°01' E 024°01'1517.7
2017-Feb-20 09:32N 37°56' E 024°19'4515.2
2017-Feb-20 06:33N 37°32' E 025°08'1110.7
2017-Feb-20 05:33N 37°28' E 025°20'0 0.0
2017-Feb-20 04:33N 37°28' E 025°20'0 0.0
2017-Feb-20 03:33N 37°28' E 025°20'0 0.0
2017-Feb-20 02:33N 37°28' E 025°20'0 0.0
2017-Feb-20 01:33N 37°28' E 025°20'0 0.0
2017-Feb-20 00:33N 37°28' E 025°20'0 0.0
2017-Feb-19 23:33N 37°28' E 025°20'0 0.0
2017-Feb-19 22:33N 37°28' E 025°20'0 0.0
2017-Feb-19 21:33N 37°28' E 025°20'6 5.8
2017-Feb-19 20:33N 37°30' E 025°13'1312.8
2017-Feb-19 19:33N 37°37' E 024°59'4615.2
2017-Feb-19 16:32N 37°59' E 024°08'6 6.5
2017-Feb-19 15:33N 38°01' E 024°01'1817.8
2017-Feb-19 14:33N 37°56' E 024°22'3314.1
2017-Feb-19 12:12N 37°38' E 024°58'1116.9
2017-Feb-19 11:34N 37°32' E 025°09'9 9.3
2017-Feb-19 10:33N 37°28' E 025°20'0 0.0
2017-Feb-19 09:33N 37°28' E 025°20'0 0.0
2017-Feb-19 08:33N 37°28' E 025°20'0 0.0
2017-Feb-19 07:33N 37°28' E 025°20'0 0.0
2017-Feb-19 06:33N 37°28' E 025°20'0 0.0
2017-Feb-19 05:33N 37°28' E 025°20'0 0.0
2017-Feb-19 04:33N 37°28' E 025°20'0 0.0
2017-Feb-19 03:33N 37°28' E 025°20'0 0.0
2017-Feb-19 02:33N 37°28' E 025°20'0 0.0
2017-Feb-19 01:33N 37°28' E 025°20'0 0.0
2017-Feb-19 00:33N 37°28' E 025°20'0 0.0
2017-Feb-18 23:33N 37°28' E 025°20'0 0.0
2017-Feb-18 22:33N 37°28' E 025°20'0 0.0
2017-Feb-18 21:33N 37°28' E 025°20'0 0.0
2017-Feb-18 20:33N 37°28' E 025°20'9 9.3
2017-Feb-18 19:33N 37°32' E 025°09'4714.7
2017-Feb-18 16:20N 37°57' E 024°18'12 6.6
2017-Feb-18 14:33N 38°01' E 024°04'4915.7
2017-Feb-18 11:25N 37°38' E 024°59'1112.2
2017-Feb-18 10:34N 37°31' E 025°10'9 8.7
2017-Feb-18 09:34N 37°28' E 025°20'0 0.0
2017-Feb-18 08:33N 37°28' E 025°20'0 0.0
2017-Feb-18 07:34N 37°28' E 025°20'0 0.0
2017-Feb-18 06:34N 37°28' E 025°20'0 0.0
2017-Feb-18 05:33N 37°28' E 025°20'0 0.0
2017-Feb-18 04:34N 37°28' E 025°20'0 0.0
2017-Feb-18 03:34N 37°28' E 025°20'0 0.0
2017-Feb-18 02:34N 37°28' E 025°20'0 0.0
2017-Feb-18 01:33N 37°28' E 025°20'0 0.0
2017-Feb-18 00:33N 37°28' E 025°20'0 0.0
2017-Feb-17 23:34N 37°28' E 025°20'0 0.0
2017-Feb-17 22:34N 37°28' E 025°20'0 0.0
2017-Feb-17 21:33N 37°28' E 025°20'0 0.0
2017-Feb-17 20:33N 37°28' E 025°20'9 9.3
2017-Feb-17 19:34N 37°32' E 025°09'5215.2
2017-Feb-17 16:09N 37°58' E 024°13'10 1.7
2017-Feb-17 10:21N 38°01' E 024°01'1417.3
2017-Feb-17 09:33N 37°57' E 024°17'4715.4
2017-Feb-17 06:31N 37°32' E 025°08'1010.8
2017-Feb-17 05:34N 37°28' E 025°20'0 0.0
2017-Feb-17 04:34N 37°28' E 025°20'0 0.0
2017-Feb-17 03:33N 37°28' E 025°20'0 0.0
2017-Feb-17 02:33N 37°28' E 025°20'0 0.0
2017-Feb-17 01:34N 37°28' E 025°20'0 0.0
2017-Feb-17 00:34N 37°28' E 025°20'0 0.0
2017-Feb-16 23:33N 37°28' E 025°20'0 0.0
2017-Feb-16 22:34N 37°28' E 025°20'0 0.0
2017-Feb-16 21:34N 37°28' E 025°20'0 0.0
2017-Feb-16 20:33N 37°28' E 025°20'9 9.4
2017-Feb-16 19:34N 37°32' E 025°09'5115.0
2017-Feb-16 16:09N 37°58' E 024°14'1117.1
2017-Feb-16 15:32N 38°01' E 024°01'0 0.0
2017-Feb-16 10:24N 38°01' E 024°01'1517.5
2017-Feb-16 09:33N 37°57' E 024°18'4515.0
2017-Feb-16 06:33N 37°33' E 025°07'1111.3
2017-Feb-16 05:33N 37°28' E 025°20'0 0.0
2017-Feb-16 04:33N 37°28' E 025°20'0 0.0
2017-Feb-16 03:33N 37°28' E 025°20'0 0.0
2017-Feb-16 02:33N 37°28' E 025°20'0 0.0
2017-Feb-16 01:34N 37°28' E 025°20'0 0.0
2017-Feb-16 00:34N 37°28' E 025°20'0 0.0
2017-Feb-15 23:34N 37°28' E 025°20'0 0.0
2017-Feb-15 22:33N 37°28' E 025°20'0 0.0
2017-Feb-15 21:34N 37°28' E 025°20'0 0.0
2017-Feb-15 20:33N 37°28' E 025°20'9 9.3
2017-Feb-15 19:33N 37°32' E 025°09'5215.1
2017-Feb-15 16:08N 37°58' E 024°13'10 1.8
2017-Feb-15 10:26N 38°01' E 024°01'1517.2
2017-Feb-15 09:33N 37°56' E 024°19'4514.9
2017-Feb-15 06:33N 37°33' E 025°07'1111.2
2017-Feb-15 05:33N 37°28' E 025°20'0 0.0
2017-Feb-15 04:34N 37°28' E 025°20'0 0.0
2017-Feb-15 03:34N 37°28' E 025°20'0 0.0
2017-Feb-15 02:34N 37°28' E 025°20'0 0.0
2017-Feb-15 01:33N 37°28' E 025°20'0 0.0
2017-Feb-15 00:33N 37°28' E 025°20'0 0.0
2017-Feb-14 23:34N 37°28' E 025°20'0 0.0
2017-Feb-14 22:33N 37°28' E 025°20'  
Track history (hours):
 
Tides and Currents Weather Stations Pressure Air Temp Water Temp Dewpoint Dewpoint Depression Visibility Wind Speed Wind Dir Waves Ship Positions

Theologos P .

Last reported at 2017-Feb-24 21:34 UTC. Time now 2017-Feb-24 21:36 UTC.
Position N 37°28' E 025°19'.

Length 118 m; draft 4.4 m.

Type: Passenger vessel. MMSI: 240521000.

Date/timePositionNaut miles runAvg speedWind from/ knotsBaromVisibWave heightAir tempDewpointWater temp
2017-Feb-24 21:34N 37°28' E 025°19'5 5.2
2017-Feb-24 20:33N 37°30' E 025°13'9 8.8
2017-Feb-24 19:33N 37°35' E 025°03'4213.8
2017-Feb-24 16:32N 37°57' E 024°19'15 2.4
2017-Feb-24 10:28N 38°01' E 024°01'1718.4
2017-Feb-24 09:33N 37°56' E 024°21'4414.7
2017-Feb-24 06:33N 37°32' E 025°08'1010.2
2017-Feb-24 05:33N 37°28' E 025°20'0 0.0
2017-Feb-24 04:33N 37°28' E 025°20'0 0.0
2017-Feb-24 03:33N 37°28' E 025°20'0 0.0
2017-Feb-24 02:33N 37°28' E 025°20'0 0.0
2017-Feb-24 01:33N 37°28' E 025°20'0 0.0
2017-Feb-24 00:33N 37°28' E 025°20'0 0.0
2017-Feb-23 23:33N 37°28' E 025°20'0 0.0
2017-Feb-23 22:33N 37°28' E 025°20'0 0.0
2017-Feb-23 21:33N 37°28' E 025°20'3 3.2
2017-Feb-23 20:34N 37°29' E 025°16'1110.9
2017-Feb-23 19:33N 37°34' E 025°04'4214.1
2017-Feb-23 16:33N 37°57' E 024°19'15 2.3
2017-Feb-23 10:15N 38°01' E 024°01'1217.6
2017-Feb-23 09:33N 37°57' E 024°15'3615.0
2017-Feb-23 07:09N 37°40' E 024°56'1219.8
2017-Feb-23 06:33N 37°33' E 025°07'1111.2
2017-Feb-23 05:33N 37°28' E 025°20'0 0.0
2017-Feb-23 04:33N 37°28' E 025°20'0 0.0
2017-Feb-23 03:33N 37°28' E 025°20'0 0.0
2017-Feb-23 02:33N 37°28' E 025°20'0 0.0
2017-Feb-23 01:33N 37°28' E 025°20'0 0.0
2017-Feb-23 00:33N 37°28' E 025°20'0 0.0
2017-Feb-22 23:33N 37°28' E 025°20'0 0.0
2017-Feb-22 22:33N 37°28' E 025°20'0 0.0
2017-Feb-22 21:33N 37°28' E 025°20'0 0.0
2017-Feb-22 20:33N 37°28' E 025°20'9 9.3
2017-Feb-22 19:33N 37°32' E 025°09'4714.8
2017-Feb-22 16:22N 37°57' E 024°18'15 2.4
2017-Feb-22 10:22N 38°01' E 024°01'1518.3
2017-Feb-22 09:31N 37°56' E 024°19'3514.1
2017-Feb-22 07:04N 37°39' E 024°57'1019.6
2017-Feb-22 06:34N 37°33' E 025°07'1111.2
2017-Feb-22 05:33N 37°28' E 025°20'0 0.0
2017-Feb-22 04:33N 37°28' E 025°20'0 0.0
2017-Feb-22 03:33N 37°28' E 025°20'0 0.0
2017-Feb-22 02:33N 37°28' E 025°20'0 0.0
2017-Feb-22 01:33N 37°28' E 025°20'0 0.0
2017-Feb-22 00:33N 37°28' E 025°20'0 0.0
2017-Feb-21 23:33N 37°28' E 025°20'0 0.0
2017-Feb-21 22:33N 37°28' E 025°20'0 0.0
2017-Feb-21 21:33N 37°28' E 025°20'0 0.0
2017-Feb-21 20:33N 37°28' E 025°20'9 9.3
2017-Feb-21 19:34N 37°32' E 025°09'62 6.6
2017-Feb-21 10:17N 38°01' E 024°01'1317.4
2017-Feb-21 09:33N 37°57' E 024°16'4715.7
2017-Feb-21 06:33N 37°33' E 025°07'1111.2
2017-Feb-21 05:33N 37°28' E 025°20'0 0.0
2017-Feb-21 04:34N 37°28' E 025°20'0 0.0
2017-Feb-21 03:34N 37°28' E 025°20'0 0.0
2017-Feb-21 02:33N 37°28' E 025°20'0 0.0
2017-Feb-21 01:34N 37°28' E 025°20'0 0.0
2017-Feb-21 00:34N 37°28' E 025°20'0 0.0
2017-Feb-20 23:33N 37°28' E 025°20'0 0.0
2017-Feb-20 22:33N 37°28' E 025°20'0 0.0
2017-Feb-20 21:33N 37°28' E 025°20'0 0.0
2017-Feb-20 20:34N 37°28' E 025°20'9 9.2
2017-Feb-20 19:33N 37°32' E 025°09'4714.9
2017-Feb-20 16:23N 37°57' E 024°18'14 2.4
2017-Feb-20 10:23N 38°01' E 024°01'1517.7
2017-Feb-20 09:32N 37°56' E 024°19'4515.2
2017-Feb-20 06:33N 37°32' E 025°08'1110.7
2017-Feb-20 05:33N 37°28' E 025°20'0 0.0
2017-Feb-20 04:33N 37°28' E 025°20'0 0.0
2017-Feb-20 03:33N 37°28' E 025°20'0 0.0
2017-Feb-20 02:33N 37°28' E 025°20'0 0.0
2017-Feb-20 01:33N 37°28' E 025°20'0 0.0
2017-Feb-20 00:33N 37°28' E 025°20'0 0.0
2017-Feb-19 23:33N 37°28' E 025°20'0 0.0
2017-Feb-19 22:33N 37°28' E 025°20'0 0.0
2017-Feb-19 21:33N 37°28' E 025°20'6 5.8
2017-Feb-19 20:33N 37°30' E 025°13'1312.8
2017-Feb-19 19:33N 37°37' E 024°59'4615.2
2017-Feb-19 16:32N 37°59' E 024°08'6 6.5
2017-Feb-19 15:33N 38°01' E 024°01'1817.8
2017-Feb-19 14:33N 37°56' E 024°22'3314.1
2017-Feb-19 12:12N 37°38' E 024°58'1116.9
2017-Feb-19 11:34N 37°32' E 025°09'9 9.3
2017-Feb-19 10:33N 37°28' E 025°20'0 0.0
2017-Feb-19 09:33N 37°28' E 025°20'0 0.0
2017-Feb-19 08:33N 37°28' E 025°20'0 0.0
2017-Feb-19 07:33N 37°28' E 025°20'0 0.0
2017-Feb-19 06:33N 37°28' E 025°20'0 0.0
2017-Feb-19 05:33N 37°28' E 025°20'0 0.0
2017-Feb-19 04:33N 37°28' E 025°20'0 0.0
2017-Feb-19 03:33N 37°28' E 025°20'0 0.0
2017-Feb-19 02:33N 37°28' E 025°20'0 0.0
2017-Feb-19 01:33N 37°28' E 025°20'0 0.0
2017-Feb-19 00:33N 37°28' E 025°20'0 0.0
2017-Feb-18 23:33N 37°28' E 025°20'0 0.0
2017-Feb-18 22:33N 37°28' E 025°20'0 0.0
2017-Feb-18 21:33N 37°28' E 025°20'0 0.0
2017-Feb-18 20:33N 37°28' E 025°20'9 9.3
2017-Feb-18 19:33N 37°32' E 025°09'4714.7
2017-Feb-18 16:20N 37°57' E 024°18'12 6.6
2017-Feb-18 14:33N 38°01' E 024°04'4915.7
2017-Feb-18 11:25N 37°38' E 024°59'1112.2
2017-Feb-18 10:34N 37°31' E 025°10'9 8.7
2017-Feb-18 09:34N 37°28' E 025°20'0 0.0
2017-Feb-18 08:33N 37°28' E 025°20'0 0.0
2017-Feb-18 07:34N 37°28' E 025°20'0 0.0
2017-Feb-18 06:34N 37°28' E 025°20'0 0.0
2017-Feb-18 05:33N 37°28' E 025°20'0 0.0
2017-Feb-18 04:34N 37°28' E 025°20'0 0.0
2017-Feb-18 03:34N 37°28' E 025°20'0 0.0
2017-Feb-18 02:34N 37°28' E 025°20'0 0.0
2017-Feb-18 01:33N 37°28' E 025°20'0 0.0
2017-Feb-18 00:33N 37°28' E 025°20'0 0.0
2017-Feb-17 23:34N 37°28' E 025°20'0 0.0
2017-Feb-17 22:34N 37°28' E 025°20'0 0.0
2017-Feb-17 21:33N 37°28' E 025°20'0 0.0
2017-Feb-17 20:33N 37°28' E 025°20'9 9.3
2017-Feb-17 19:34N 37°32' E 025°09'5215.2
2017-Feb-17 16:09N 37°58' E 024°13'10 1.7
2017-Feb-17 10:21N 38°01' E 024°01'1417.3
2017-Feb-17 09:33N 37°57' E 024°17'4715.4
2017-Feb-17 06:31N 37°32' E 025°08'1010.8
2017-Feb-17 05:34N 37°28' E 025°20'0 0.0
2017-Feb-17 04:34N 37°28' E 025°20'0 0.0
2017-Feb-17 03:33N 37°28' E 025°20'0 0.0
2017-Feb-17 02:33N 37°28' E 025°20'0 0.0
2017-Feb-17 01:34N 37°28' E 025°20'0 0.0
2017-Feb-17 00:34N 37°28' E 025°20'0 0.0
2017-Feb-16 23:33N 37°28' E 025°20'0 0.0
2017-Feb-16 22:34N 37°28' E 025°20'0 0.0
2017-Feb-16 21:34N 37°28' E 025°20'0 0.0
2017-Feb-16 20:33N 37°28' E 025°20'9 9.4
2017-Feb-16 19:34N 37°32' E 025°09'5115.0
2017-Feb-16 16:09N 37°58' E 024°14'1117.1
2017-Feb-16 15:32N 38°01' E 024°01'0 0.0
2017-Feb-16 10:24N 38°01' E 024°01'1517.5
2017-Feb-16 09:33N 37°57' E 024°18'4515.0
2017-Feb-16 06:33N 37°33' E 025°07'1111.3
2017-Feb-16 05:33N 37°28' E 025°20'0 0.0
2017-Feb-16 04:33N 37°28' E 025°20'0 0.0
2017-Feb-16 03:33N 37°28' E 025°20'0 0.0
2017-Feb-16 02:33N 37°28' E 025°20'0 0.0
2017-Feb-16 01:34N 37°28' E 025°20'0 0.0
2017-Feb-16 00:34N 37°28' E 025°20'0 0.0
2017-Feb-15 23:34N 37°28' E 025°20'0 0.0
2017-Feb-15 22:33N 37°28' E 025°20'0 0.0
2017-Feb-15 21:34N 37°28' E 025°20'0 0.0
2017-Feb-15 20:33N 37°28' E 025°20'9 9.3
2017-Feb-15 19:33N 37°32' E 025°09'5215.1
2017-Feb-15 16:08N 37°58' E 024°13'10 1.8
2017-Feb-15 10:26N 38°01' E 024°01'1517.2
2017-Feb-15 09:33N 37°56' E 024°19'4514.9
2017-Feb-15 06:33N 37°33' E 025°07'1111.2
2017-Feb-15 05:33N 37°28' E 025°20'0 0.0
2017-Feb-15 04:34N 37°28' E 025°20'0 0.0
2017-Feb-15 03:34N 37°28' E 025°20'0 0.0
2017-Feb-15 02:34N 37°28' E 025°20'0 0.0
2017-Feb-15 01:33N 37°28' E 025°20'0 0.0
2017-Feb-15 00:33N 37°28' E 025°20'0 0.0
2017-Feb-14 23:34N 37°28' E 025°20'0 0.0
2017-Feb-14 22:33N 37°28' E 025°20'  

Dump ship's entire track history